This is the latest recevied weather packets stored in our database for station/object CE3MXM-12. If no packets are shown the sender has not sent any weather packets the latest 1 day(s).
| Time | Temp. | Humidity | Pressure | Rain* | Wind** | Luminosity | Snow |
|---|---|---|---|---|---|---|---|
| 1778004008 | 17.22° C | 63% | 1011.9 hPa | - | 0.89 m/s, 320° | - | - |
| 1778003708 | 17.22° C | 62% | 1011.8 hPa | - | 3.13 m/s, 229° | - | - |
| 1778003407 | 17.78° C | 63% | 1012 hPa | - | 1.79 m/s, 315° | - | - |
| 1778003107 | 17.78° C | 63% | 1011.9 hPa | - | 1.79 m/s, 316° | - | - |
| 1778002807 | 18.33° C | 62% | 1012 hPa | - | 1.34 m/s, 300° | - | - |
| 1778002507 | 18.33° C | 62% | 1012 hPa | - | 1.79 m/s, 322° | - | - |
| 1778002207 | 18.33° C | 61% | 1012.1 hPa | - | 4.92 m/s, 125° | - | - |
| 1778001907 | 18.89° C | 60% | 1012.2 hPa | - | 3.58 m/s, 276° | - | - |
| 1778001607 | 19.44° C | 60% | 1012.1 hPa | - | 1.79 m/s, 322° | - | - |
| 1778001307 | 19.44° C | 58% | 1012.1 hPa | - | 8.05 m/s, 273° | - | - |
| 1778001007 | 20° C | 57% | 1012.1 hPa | - | 6.26 m/s, 268° | - | - |
| 1778000706 | 20.56° C | 57% | 1011.9 hPa | - | 4.47 m/s, 320° | - | - |
| 1778000406 | 20.56° C | 56% | 1012.1 hPa | - | 1.79 m/s, 240° | - | - |
| 1778000106 | 20.56° C | 56% | 1012 hPa | - | 4.47 m/s, 291° | - | - |
| 1777999806 | 20.56° C | 55% | 1011.9 hPa | - | 4.92 m/s, 334° | - | - |
| 1777999506 | 20.56° C | 58% | 1012.2 hPa | - | 0.89 m/s, 145° | - | - |
| 1777999206 | 20.56° C | 57% | 1012 hPa | - | 1.34 m/s, 298° | - | - |
| 1777998906 | 20° C | 57% | 1011.9 hPa | - | 3.13 m/s, 255° | - | - |
| 1777998606 | 20.56° C | 56% | 1012 hPa | - | 4.92 m/s, 260° | - | - |
| 1777998306 | 20.56° C | 56% | 1011.9 hPa | - | 3.13 m/s, 280° | - | - |
| 1777998005 | 20° C | 58% | 1011.8 hPa | - | 2.68 m/s, 335° | - | - |
| 1777997705 | 20° C | 57% | 1011.9 hPa | - | 3.13 m/s, 295° | - | - |
| 1777997405 | 20° C | 58% | 1012.1 hPa | - | 1.79 m/s, 308° | - | - |
| 1777997105 | 20° C | 59% | 1012 hPa | - | 1.79 m/s, 206° | - | - |
| 1777996805 | 20° C | 59% | 1012 hPa | - | 0.89 m/s, 321° | - | - |
* Rain since midnight (hover to see other rain measurements)
** Current wind speed in m/s (hover to see current wind gust speed)